Time;durP1;ratioP1;P1;durP2;ratioP2;P2;SDS_P1;SDS_P2;PMS_P1;PMS_P2;Temp;Humidity;BMP_temperature;BMP_pressure;BME280_temperature;BME280_humidity;BME280_pressure;Samples;Min_cycle;Max_cycle;Signal;HPM_P1;HPM_P2
2022/08/19 00:01:17;;;;;;;15.80;13.02;;;;;;;;;;5077568;28;20460;-81
2022/08/19 00:03:44;;;;;;;20.77;14.35;;;;;;;;;;5073693;28;20431;-81
2022/08/19 00:06:12;;;;;;;17.80;13.00;;;;;;;;;;5070657;28;20432;-81
2022/08/19 00:08:38;;;;;;;18.02;14.15;;;;;;;;;;5072534;28;20415;-81
2022/08/19 00:11:07;;;;;;;15.82;12.73;;;;;;;;;;5072120;28;20434;-81
2022/08/19 00:13:33;;;;;;;19.25;13.63;;;;;;;;;;5057965;28;20427;-80
2022/08/19 00:16:00;;;;;;;17.77;13.50;;;;;;;;;;5071198;28;20652;-81
2022/08/19 00:18:27;;;;;;;17.60;14.00;;;;;;;;;;5077292;28;20421;-80
2022/08/19 00:20:54;;;;;;;16.92;13.73;;;;;;;;;;5069616;28;20800;-79
2022/08/19 00:23:24;;;;;;;17.27;13.00;;;;;;;;;;5066897;28;20430;-79
2022/08/19 00:25:50;;;;;;;16.60;12.48;;;;;;;;;;5074131;28;20423;-81
2022/08/19 00:28:17;;;;;;;17.23;12.15;;;;;;;;;;5074304;28;20931;-80
2022/08/19 00:30:45;;;;;;;15.43;12.70;;;;;;;;;;5076623;28;20495;-81
2022/08/19 00:33:13;;;;;;;18.05;13.25;;;;;;;;;;5085748;28;20420;-80
2022/08/19 00:35:40;;;;;;;17.88;12.13;;;;;;;;;;5084866;28;20458;-81
2022/08/19 00:38:07;;;;;;;18.58;12.90;;;;;;;;;;5069830;28;20416;-80
2022/08/19 00:40:36;;;;;;;14.45;11.25;;;;;;;;;;5073536;28;20423;-81
2022/08/19 00:43:08;;;;;;;15.38;12.05;;;;;;;;;;5068975;28;20506;-81
2022/08/19 00:45:35;;;;;;;13.57;12.27;;;;;;;;;;5072724;28;20435;-80
2022/08/19 00:48:04;;;;;;;13.27;10.48;;;;;;;;;;5070933;28;20848;-81
2022/08/19 00:50:31;;;;;;;17.40;13.07;;;;;;;;;;5074502;28;20495;-81
2022/08/19 00:53:04;;;;;;;15.88;13.05;;;;;;;;;;5078953;28;20508;-80
2022/08/19 00:55:33;;;;;;;20.33;12.05;;;;;;;;;;5087492;28;20437;-81
2022/08/19 00:58:05;;;;;;;14.52;12.07;;;;;;;;;;5074484;28;20429;-81
2022/08/19 01:00:32;;;;;;;13.25;11.00;;;;;;;;;;5071418;28;20496;-81
2022/08/19 01:03:02;;;;;;;11.48;9.80;;;;;;;;;;5069872;28;20510;-80
2022/08/19 01:05:29;;;;;;;15.68;11.50;;;;;;;;;;5075695;28;20431;-81
2022/08/19 01:07:57;;;;;;;13.73;11.38;;;;;;;;;;5073285;28;20417;-81
2022/08/19 01:10:24;;;;;;;13.55;11.25;;;;;;;;;;5076325;28;20586;-80
2022/08/19 01:12:52;;;;;;;15.20;11.38;;;;;;;;;;5076638;28;20483;-80
2022/08/19 01:15:22;;;;;;;13.70;10.35;;;;;;;;;;5076402;28;20427;-80
2022/08/19 01:17:49;;;;;;;13.95;11.05;;;;;;;;;;5076735;28;20923;-80
2022/08/19 01:20:18;;;;;;;13.77;10.48;;;;;;;;;;5077205;28;20434;-81
2022/08/19 01:22:49;;;;;;;13.52;10.38;;;;;;;;;;5076965;28;20415;-80
2022/08/19 01:25:17;;;;;;;11.73;10.20;;;;;;;;;;5073628;28;20434;-80
2022/08/19 01:27:45;;;;;;;10.50;8.50;;;;;;;;;;5073704;28;20412;-80
2022/08/19 01:30:13;;;;;;;13.67;10.47;;;;;;;;;;5075071;28;20459;-80
2022/08/19 01:32:39;;;;;;;12.60;10.18;;;;;;;;;;5067396;28;20524;-80
2022/08/19 01:35:07;;;;;;;13.07;11.20;;;;;;;;;;5093069;28;20431;-80
2022/08/19 01:37:42;;;;;;;13.50;11.52;;;;;;;;;;5074592;28;20418;-80
2022/08/19 01:40:16;;;;;;;15.00;10.20;;;;;;;;;;5075504;28;20430;-81
2022/08/19 01:42:43;;;;;;;12.77;11.35;;;;;;;;;;5073399;28;20415;-80
2022/08/19 01:45:10;;;;;;;11.75;10.43;;;;;;;;;;5076089;28;20431;-80
2022/08/19 01:47:38;;;;;;;12.32;10.80;;;;;;;;;;5072210;28;20851;-80
2022/08/19 01:50:05;;;;;;;13.35;9.85;;;;;;;;;;5076063;28;20482;-81
2022/08/19 01:52:32;;;;;;;14.00;10.95;;;;;;;;;;5070372;28;20546;-80
2022/08/19 01:54:58;;;;;;;14.43;11.10;;;;;;;;;;5075542;28;20431;-81
2022/08/19 01:57:29;;;;;;;15.88;11.52;;;;;;;;;;5063206;28;20432;-82
2022/08/19 01:59:55;;;;;;;12.63;10.23;;;;;;;;;;5096952;28;20435;-80
2022/08/19 02:02:22;;;;;;;15.20;12.40;;;;;;;;;;5074872;28;20445;-82
2022/08/19 02:04:48;;;;;;;16.83;11.90;;;;;;;;;;5077670;28;20431;-82
2022/08/19 02:07:15;;;;;;;16.15;13.82;;;;;;;;;;5077409;28;20438;-82
2022/08/19 02:09:42;;;;;;;19.52;13.75;;;;;;;;;;5068313;28;20492;-82
2022/08/19 02:12:08;;;;;;;16.45;13.00;;;;;;;;;;5076257;28;20431;-81
2022/08/19 02:14:37;;;;;;;20.35;15.95;;;;;;;;;;5080726;28;20427;-81
2022/08/19 02:17:04;;;;;;;17.55;13.98;;;;;;;;;;5080007;28;20502;-81
2022/08/19 02:19:33;;;;;;;20.63;14.70;;;;;;;;;;5081871;28;20442;-81
2022/08/19 02:22:00;;;;;;;18.70;14.63;;;;;;;;;;5078217;28;20423;-81
2022/08/19 02:24:26;;;;;;;16.10;13.17;;;;;;;;;;5079927;28;20423;-82
2022/08/19 02:26:55;;;;;;;17.05;12.70;;;;;;;;;;5074518;28;20431;-81
2022/08/19 02:29:21;;;;;;;18.95;12.55;;;;;;;;;;5077483;28;20469;-82
2022/08/19 02:31:51;;;;;;;17.70;12.73;;;;;;;;;;5077495;28;20431;-82
2022/08/19 02:34:25;;;;;;;16.80;12.57;;;;;;;;;;5077153;28;20433;-82
2022/08/19 02:36:51;;;;;;;14.77;10.80;;;;;;;;;;5079048;28;20419;-82
2022/08/19 02:39:17;;;;;;;15.77;12.13;;;;;;;;;;5077984;28;20430;-80
2022/08/19 02:41:44;;;;;;;12.98;10.70;;;;;;;;;;5076080;28;20419;-82
2022/08/19 02:44:10;;;;;;;14.85;11.20;;;;;;;;;;5075297;28;20426;-83
2022/08/19 02:46:36;;;;;;;14.80;11.25;;;;;;;;;;5077552;28;20959;-80
2022/08/19 02:49:06;;;;;;;14.80;11.85;;;;;;;;;;5078551;28;20424;-80
2022/08/19 02:51:36;;;;;;;11.95;8.57;;;;;;;;;;5077604;28;22014;-81
2022/08/19 02:54:03;;;;;;;12.90;8.50;;;;;;;;;;5076814;28;20427;-81
2022/08/19 02:56:38;;;;;;;9.73;8.73;;;;;;;;;;5074729;28;20440;-80
2022/08/19 02:59:11;;;;;;;10.35;8.00;;;;;;;;;;5075822;28;20432;-80
2022/08/19 03:01:40;;;;;;;11.02;7.65;;;;;;;;;;5078710;28;20479;-80
2022/08/19 03:04:08;;;;;;;11.55;8.48;;;;;;;;;;5077013;28;20434;-80
2022/08/19 03:06:37;;;;;;;11.82;8.15;;;;;;;;;;5079624;28;20434;-81
2022/08/19 03:09:03;;;;;;;10.55;8.63;;;;;;;;;;5078024;28;20428;-80
2022/08/19 03:11:32;;;;;;;10.88;8.90;;;;;;;;;;5078264;28;20427;-81
2022/08/19 03:13:59;;;;;;;9.00;8.10;;;;;;;;;;5077226;28;21028;-80
2022/08/19 03:16:26;;;;;;;9.02;7.80;;;;;;;;;;5078988;28;20425;-80
2022/08/19 03:18:54;;;;;;;11.43;8.20;;;;;;;;;;5077604;28;20442;-80
2022/08/19 03:21:23;;;;;;;12.95;9.82;;;;;;;;;;5078156;28;20430;-81
2022/08/19 03:23:51;;;;;;;12.48;10.35;;;;;;;;;;5076633;28;20434;-81
2022/08/19 03:26:18;;;;;;;14.48;12.07;;;;;;;;;;5076012;28;20431;-80
2022/08/19 03:28:49;;;;;;;13.32;11.18;;;;;;;;;;5075158;28;20430;-80
2022/08/19 03:31:17;;;;;;;12.93;11.25;;;;;;;;;;5076409;28;20465;-81
2022/08/19 03:33:44;;;;;;;13.80;11.23;;;;;;;;;;5073898;28;20423;-82
2022/08/19 03:36:13;;;;;;;13.65;11.80;;;;;;;;;;5075481;28;20601;-80
2022/08/19 03:38:44;;;;;;;14.23;12.05;;;;;;;;;;5074283;28;20523;-79
2022/08/19 03:41:12;;;;;;;15.30;12.90;;;;;;;;;;5073231;28;20866;-80
2022/08/19 03:43:40;;;;;;;15.70;13.98;;;;;;;;;;5074409;28;20431;-80
2022/08/19 03:46:10;;;;;;;19.38;14.77;;;;;;;;;;5075748;28;20436;-82
2022/08/19 03:48:38;;;;;;;16.20;14.02;;;;;;;;;;5075461;28;20423;-81
2022/08/19 03:51:05;;;;;;;16.77;13.70;;;;;;;;;;5073711;28;20423;-80
2022/08/19 03:53:32;;;;;;;17.45;13.18;;;;;;;;;;5076768;28;20428;-81
2022/08/19 03:56:00;;;;;;;15.80;13.07;;;;;;;;;;5074646;28;20442;-81
2022/08/19 03:58:28;;;;;;;13.88;11.23;;;;;;;;;;5091775;28;20462;-81
2022/08/19 04:00:56;;;;;;;13.27;11.35;;;;;;;;;;5081589;28;20427;-80
2022/08/19 04:03:24;;;;;;;14.48;12.15;;;;;;;;;;5087607;28;20454;-80
2022/08/19 04:05:50;;;;;;;19.20;14.07;;;;;;;;;;5083759;28;20428;-80
2022/08/19 04:08:22;;;;;;;16.30;13.30;;;;;;;;;;5079328;28;20423;-80
2022/08/19 04:10:48;;;;;;;18.35;13.90;;;;;;;;;;5084047;28;20439;-79
2022/08/19 04:13:19;;;;;;;17.80;14.90;;;;;;;;;;5073667;28;20458;-79
2022/08/19 04:15:49;;;;;;;18.40;14.57;;;;;;;;;;5076529;28;20469;-82
2022/08/19 04:18:16;;;;;;;15.60;13.90;;;;;;;;;;5076820;28;20431;-80
2022/08/19 04:20:45;;;;;;;21.15;16.33;;;;;;;;;;5074458;28;20785;-81
2022/08/19 04:23:12;;;;;;;22.17;17.33;;;;;;;;;;5068991;28;20415;-80
2022/08/19 04:25:40;;;;;;;23.63;18.30;;;;;;;;;;5074399;28;20437;-81
2022/08/19 04:28:06;;;;;;;24.63;19.30;;;;;;;;;;5072151;28;20460;-80
2022/08/19 04:30:39;;;;;;;30.50;21.88;;;;;;;;;;5071250;28;20933;-80
2022/08/19 04:33:07;;;;;;;28.50;21.95;;;;;;;;;;5065478;28;20465;-80
2022/08/19 04:35:35;;;;;;;25.92;20.08;;;;;;;;;;5075238;28;20439;-80
2022/08/19 04:38:02;;;;;;;29.45;22.65;;;;;;;;;;5082017;28;20834;-82
2022/08/19 04:43:13;;;;;;;36.67;23.85;;;;;;;;;;5072378;28;20414;-81
2022/08/19 04:45:41;;;;;;;32.10;22.20;;;;;;;;;;5077767;28;20431;-80
2022/08/19 04:48:10;;;;;;;29.60;22.10;;;;;;;;;;5070569;28;20420;-82
2022/08/19 04:50:37;;;;;;;32.42;22.48;;;;;;;;;;5076335;28;20920;-81
2022/08/19 04:53:04;;;;;;;25.50;18.80;;;;;;;;;;5076765;28;20520;-82
2022/08/19 04:55:31;;;;;;;26.13;20.08;;;;;;;;;;5091958;28;20436;-80
2022/08/19 04:57:58;;;;;;;28.95;22.15;;;;;;;;;;5083120;28;20428;-80
2022/08/19 05:00:24;;;;;;;28.97;21.83;;;;;;;;;;5089775;28;21336;-80
2022/08/19 05:02:54;;;;;;;30.27;23.35;;;;;;;;;;5068914;28;20527;-80
2022/08/19 05:05:21;;;;;;;31.75;23.17;;;;;;;;;;5074674;28;20432;-80
2022/08/19 05:07:47;;;;;;;28.35;22.13;;;;;;;;;;5071941;28;20789;-81
2022/08/19 05:10:14;;;;;;;26.75;20.73;;;;;;;;;;5066820;28;20421;-80
2022/08/19 05:12:40;;;;;;;28.33;21.17;;;;;;;;;;5069582;28;20792;-80
2022/08/19 05:15:09;;;;;;;26.83;20.95;;;;;;;;;;5070879;28;20433;-81
2022/08/19 05:17:36;;;;;;;29.73;22.83;;;;;;;;;;5072942;28;20408;-81
2022/08/19 05:22:48;;;;;;;27.57;20.57;;;;;;;;;;5071379;28;20430;-81
2022/08/19 05:25:18;;;;;;;27.25;21.30;;;;;;;;;;5072495;28;20431;-82
2022/08/19 05:27:44;;;;;;;24.95;19.98;;;;;;;;;;5070412;28;20432;-81
2022/08/19 05:30:11;;;;;;;23.40;19.40;;;;;;;;;;5070747;28;20427;-81
2022/08/19 05:32:38;;;;;;;26.60;21.00;;;;;;;;;;5066725;28;21187;-81
2022/08/19 05:35:06;;;;;;;24.95;19.00;;;;;;;;;;5066799;28;20420;-79
2022/08/19 05:37:34;;;;;;;26.30;19.10;;;;;;;;;;5071546;28;20412;-82
2022/08/19 05:40:01;;;;;;;24.08;18.85;;;;;;;;;;5072284;28;20427;-81
2022/08/19 05:42:27;;;;;;;22.27;18.10;;;;;;;;;;5080097;28;20473;-81
2022/08/19 05:44:53;;;;;;;21.27;17.73;;;;;;;;;;5071703;28;20434;-80
2022/08/19 05:47:20;;;;;;;24.73;17.98;;;;;;;;;;5070686;28;20410;-80
2022/08/19 05:49:46;;;;;;;23.20;17.55;;;;;;;;;;5073996;28;20431;-80
2022/08/19 05:52:16;;;;;;;22.25;17.70;;;;;;;;;;5075190;28;20925;-80
2022/08/19 05:54:44;;;;;;;23.98;19.40;;;;;;;;;;5076391;28;20469;-80
2022/08/19 05:57:11;;;;;;;22.65;18.75;;;;;;;;;;5075322;28;20430;-81
2022/08/19 05:59:37;;;;;;;24.58;19.08;;;;;;;;;;5074467;28;20431;-79
2022/08/19 06:02:06;;;;;;;20.73;17.75;;;;;;;;;;5069883;28;20454;-81
2022/08/19 06:04:33;;;;;;;23.58;18.10;;;;;;;;;;5074165;28;20435;-80
2022/08/19 06:07:01;;;;;;;22.02;16.98;;;;;;;;;;5059872;28;20427;-81
2022/08/19 06:09:29;;;;;;;20.37;16.40;;;;;;;;;;5075500;28;20534;-80
2022/08/19 06:11:59;;;;;;;21.23;17.70;;;;;;;;;;5074263;28;20419;-84
2022/08/19 06:14:30;;;;;;;19.52;17.25;;;;;;;;;;5072961;28;20431;-80
2022/08/19 06:16:59;;;;;;;19.70;16.20;;;;;;;;;;5072000;28;20431;-80
2022/08/19 06:19:26;;;;;;;18.58;15.57;;;;;;;;;;5071407;28;20967;-82
2022/08/19 06:21:53;;;;;;;19.70;15.20;;;;;;;;;;5076132;28;20408;-82
2022/08/19 06:24:23;;;;;;;20.27;17.08;;;;;;;;;;5072531;28;20431;-81
2022/08/19 06:26:53;;;;;;;18.30;15.57;;;;;;;;;;5073517;28;20422;-82
2022/08/19 06:29:20;;;;;;;18.05;14.60;;;;;;;;;;5074952;28;20498;-81
2022/08/19 06:31:50;;;;;;;21.70;15.70;;;;;;;;;;5072805;28;20459;-82
2022/08/19 06:34:17;;;;;;;19.10;14.32;;;;;;;;;;5077497;28;20439;-82
2022/08/19 06:36:45;;;;;;;16.55;13.95;;;;;;;;;;5076660;28;20434;-80
2022/08/19 06:39:14;;;;;;;14.70;13.10;;;;;;;;;;5073093;28;20917;-80
2022/08/19 06:41:42;;;;;;;15.32;12.05;;;;;;;;;;5107671;28;20422;-81
2022/08/19 06:44:11;;;;;;;16.20;12.73;;;;;;;;;;5074668;28;20427;-83
2022/08/19 06:46:38;;;;;;;16.27;13.15;;;;;;;;;;5072467;28;20866;-79
2022/08/19 06:49:05;;;;;;;13.75;11.38;;;;;;;;;;5067932;28;20423;-80
2022/08/19 06:51:32;;;;;;;11.30;9.60;;;;;;;;;;5071085;28;20423;-80
2022/08/19 06:53:59;;;;;;;9.05;7.85;;;;;;;;;;5072512;28;20429;-81
2022/08/19 06:56:30;;;;;;;9.30;8.40;;;;;;;;;;5103826;28;20428;-81
2022/08/19 06:58:57;;;;;;;10.23;7.70;;;;;;;;;;5071975;28;20427;-82
2022/08/19 07:01:25;;;;;;;12.05;7.40;;;;;;;;;;5075478;28;20893;-81
2022/08/19 07:03:51;;;;;;;7.82;7.07;;;;;;;;;;5075365;28;20996;-81
2022/08/19 07:06:19;;;;;;;9.83;7.40;;;;;;;;;;5071814;28;20423;-83
2022/08/19 07:08:47;;;;;;;7.70;6.90;;;;;;;;;;5073658;28;20444;-82
2022/08/19 07:11:15;;;;;;;7.10;6.50;;;;;;;;;;5070395;28;20503;-80
2022/08/19 07:13:43;;;;;;;6.90;5.95;;;;;;;;;;5075878;28;20427;-82
2022/08/19 07:16:10;;;;;;;8.57;7.15;;;;;;;;;;5071814;28;20840;-82
2022/08/19 07:18:39;;;;;;;7.38;6.68;;;;;;;;;;5073452;28;20439;-82
2022/08/19 07:21:05;;;;;;;8.40;7.10;;;;;;;;;;5070867;28;20423;-80
2022/08/19 07:23:32;;;;;;;6.75;5.80;;;;;;;;;;5073470;28;20427;-82
2022/08/19 07:25:58;;;;;;;7.03;5.55;;;;;;;;;;5067961;28;20416;-82
2022/08/19 07:28:25;;;;;;;6.60;5.60;;;;;;;;;;5067207;28;20451;-82
2022/08/19 07:30:51;;;;;;;9.52;5.50;;;;;;;;;;5073398;28;20404;-80
2022/08/19 07:33:19;;;;;;;5.80;5.30;;;;;;;;;;5084006;28;20481;-82
2022/08/19 07:35:46;;;;;;;7.32;5.30;;;;;;;;;;5071465;28;20466;-80
2022/08/19 07:38:13;;;;;;;6.40;5.07;;;;;;;;;;5071768;28;20436;-80
2022/08/19 07:40:43;;;;;;;5.88;4.32;;;;;;;;;;5069285;28;20427;-81
2022/08/19 07:43:09;;;;;;;6.88;4.47;;;;;;;;;;5070668;28;20493;-82
2022/08/19 07:45:36;;;;;;;5.35;4.93;;;;;;;;;;5068724;28;20431;-80
2022/08/19 07:48:03;;;;;;;4.00;3.60;;;;;;;;;;5071181;28;20489;-80
2022/08/19 07:50:30;;;;;;;4.05;2.90;;;;;;;;;;5069420;28;20459;-82
2022/08/19 07:52:57;;;;;;;4.38;3.40;;;;;;;;;;5071074;28;20432;-81
2022/08/19 07:55:25;;;;;;;4.65;3.60;;;;;;;;;;5065064;28;20435;-81
2022/08/19 07:57:53;;;;;;;4.65;3.20;;;;;;;;;;5070530;28;20931;-81
2022/08/19 08:00:20;;;;;;;4.38;3.30;;;;;;;;;;5072463;28;20443;-81
2022/08/19 08:02:46;;;;;;;2.80;2.60;;;;;;;;;;5068911;28;20484;-82
2022/08/19 08:10:42;;;;;;;4.60;3.30;;;;;;;;;;5068693;28;20546;-80
2022/08/19 08:13:08;;;;;;;4.87;3.60;;;;;;;;;;5071663;28;20423;-80
2022/08/19 08:15:36;;;;;;;3.65;3.35;;;;;;;;;;5066911;28;20939;-80
2022/08/19 08:18:03;;;;;;;3.63;3.33;;;;;;;;;;5069209;28;20428;-80
2022/08/19 08:20:30;;;;;;;5.82;5.30;;;;;;;;;;5065681;28;20419;-81
2022/08/19 08:25:41;;;;;;;6.30;5.70;;;;;;;;;;5065913;28;20448;-80
2022/08/19 08:28:08;;;;;;;6.53;5.70;;;;;;;;;;5098230;28;20433;-81
2022/08/19 08:30:36;;;;;;;6.53;5.85;;;;;;;;;;5066593;28;20459;-80
2022/08/19 08:33:03;;;;;;;6.30;5.20;;;;;;;;;;5070572;28;20885;-81
2022/08/19 08:35:29;;;;;;;5.07;3.65;;;;;;;;;;5069871;28;20770;-80
2022/08/19 08:37:56;;;;;;;4.80;4.40;;;;;;;;;;5068317;28;20431;-79
2022/08/19 08:40:27;;;;;;;5.22;3.80;;;;;;;;;;5064837;28;20494;-79
2022/08/19 08:42:58;;;;;;;4.65;3.90;;;;;;;;;;5069798;28;20896;-80
2022/08/19 08:45:25;;;;;;;3.63;2.63;;;;;;;;;;5070946;28;20430;-79
2022/08/19 08:47:55;;;;;;;3.00;2.70;;;;;;;;;;5067384;28;20525;-82
2022/08/19 08:50:24;;;;;;;3.50;2.90;;;;;;;;;;5066038;28;20435;-81
2022/08/19 08:52:52;;;;;;;3.20;2.75;;;;;;;;;;5068253;28;20435;-81
2022/08/19 08:55:21;;;;;;;5.00;3.17;;;;;;;;;;5066985;28;20439;-78
2022/08/19 08:57:54;;;;;;;2.95;2.70;;;;;;;;;;5067225;28;20444;-78
2022/08/19 09:00:22;;;;;;;4.43;3.33;;;;;;;;;;5069138;28;20613;-80
2022/08/19 09:02:48;;;;;;;3.75;3.20;;;;;;;;;;5061585;28;20480;-82
2022/08/19 09:05:15;;;;;;;5.60;4.00;;;;;;;;;;5067891;28;20446;-81
2022/08/19 09:07:47;;;;;;;5.80;4.15;;;;;;;;;;5067156;28;20419;-82
2022/08/19 09:10:19;;;;;;;4.30;3.90;;;;;;;;;;5070888;28;20569;-81
2022/08/19 09:12:50;;;;;;;4.15;2.92;;;;;;;;;;5069405;28;20424;-83
2022/08/19 09:15:19;;;;;;;5.47;3.17;;;;;;;;;;5068785;28;20435;-81
2022/08/19 09:17:45;;;;;;;3.78;2.80;;;;;;;;;;5068101;28;20420;-82
2022/08/19 09:20:16;;;;;;;4.22;3.40;;;;;;;;;;5067223;28;20510;-82
2022/08/19 09:22:43;;;;;;;3.50;3.20;;;;;;;;;;5067606;28;20427;-80
2022/08/19 09:25:11;;;;;;;3.40;3.10;;;;;;;;;;5064425;28;20465;-82
2022/08/19 09:27:38;;;;;;;4.80;3.38;;;;;;;;;;5066270;28;20438;-83
2022/08/19 09:30:05;;;;;;;4.07;3.10;;;;;;;;;;5066567;28;20941;-82
2022/08/19 09:32:33;;;;;;;4.85;3.85;;;;;;;;;;5067948;28;20477;-82
2022/08/19 09:35:00;;;;;;;8.40;3.35;;;;;;;;;;5070717;28;20905;-78
2022/08/19 09:37:26;;;;;;;2.60;2.40;;;;;;;;;;5068580;28;20485;-83
2022/08/19 09:39:53;;;;;;;3.10;1.92;;;;;;;;;;5066546;28;20427;-81
2022/08/19 09:42:20;;;;;;;3.80;2.30;;;;;;;;;;5066599;28;20427;-82
2022/08/19 09:44:46;;;;;;;2.50;2.30;;;;;;;;;;5065643;28;20442;-82
2022/08/19 09:47:13;;;;;;;2.95;2.13;;;;;;;;;;5070357;28;20816;-82
2022/08/19 09:49:42;;;;;;;4.30;1.90;;;;;;;;;;5068902;28;20434;-83
2022/08/19 09:52:10;;;;;;;4.47;2.10;;;;;;;;;;5067485;28;20486;-82
2022/08/19 09:54:36;;;;;;;4.75;2.70;;;;;;;;;;5066310;28;20792;-81
2022/08/19 09:57:03;;;;;;;3.95;2.70;;;;;;;;;;5067936;28;20523;-80
2022/08/19 09:59:30;;;;;;;3.40;2.70;;;;;;;;;;5068977;28;20434;-80
2022/08/19 10:01:56;;;;;;;3.00;2.60;;;;;;;;;;5067328;28;20526;-80
2022/08/19 10:05:47;;;;;;;2.90;2.70;;;;;;;;;;5068738;28;20423;-81
2022/08/19 10:07:11;;;;;;;2.85;2.65;;;;;;;;;;5067060;28;20435;-80
2022/08/19 10:09:38;;;;;;;3.25;2.13;;;;;;;;;;5063913;28;20431;-79
2022/08/19 10:12:05;;;;;;;1.10;1.00;;;;;;;;;;5064566;28;20434;-78
2022/08/19 10:14:32;;;;;;;1.70;1.60;;;;;;;;;;5065877;28;20452;-81
2022/08/19 10:17:00;;;;;;;1.90;1.70;;;;;;;;;;5065422;28;20423;-81
2022/08/19 10:19:28;;;;;;;1.70;1.20;;;;;;;;;;5064596;28;20427;-81
2022/08/19 10:21:54;;;;;;;1.95;1.17;;;;;;;;;;5061945;28;20423;-80
2022/08/19 10:24:24;;;;;;;1.70;1.10;;;;;;;;;;5064706;28;20427;-80
2022/08/19 10:26:50;;;;;;;1.80;1.13;;;;;;;;;;5063353;28;20932;-81
2022/08/19 10:29:17;;;;;;;2.70;1.30;;;;;;;;;;5064443;28;20431;-82
2022/08/19 10:31:43;;;;;;;1.38;0.90;;;;;;;;;;5062023;28;20430;-82
2022/08/19 10:34:10;;;;;;;1.38;0.90;;;;;;;;;;5068889;28;20454;-80
2022/08/19 10:36:38;;;;;;;1.10;1.00;;;;;;;;;;5045005;28;20472;-79
2022/08/19 10:39:06;;;;;;;1.63;1.20;;;;;;;;;;5067910;28;20423;-80
2022/08/19 10:41:35;;;;;;;1.60;1.10;;;;;;;;;;5072209;28;20424;-79
2022/08/19 10:44:02;;;;;;;1.60;1.50;;;;;;;;;;5071919;28;20434;-81
2022/08/19 10:46:31;;;;;;;2.55;1.20;;;;;;;;;;5070945;28;20889;-81
2022/08/19 10:48:57;;;;;;;1.20;1.10;;;;;;;;;;5071080;28;20439;-80
2022/08/19 10:54:07;;;;;;;1.45;1.30;;;;;;;;;;5068247;28;20460;-80
2022/08/19 10:56:53;;;;;;;1.50;1.20;;;;;;;;;;5068678;28;20428;-80
2022/08/19 10:59:20;;;;;;;2.88;1.30;;;;;;;;;;5071667;28;20935;-81
2022/08/19 11:01:47;;;;;;;2.50;1.50;;;;;;;;;;5072386;28;20458;-81
2022/08/19 11:04:17;;;;;;;1.42;1.30;;;;;;;;;;5098226;28;20424;-80
2022/08/19 11:06:46;;;;;;;1.75;1.27;;;;;;;;;;5067202;28;20430;-82
2022/08/19 11:09:13;;;;;;;1.50;1.35;;;;;;;;;;5068979;28;20790;-81
2022/08/19 11:11:41;;;;;;;1.80;1.00;;;;;;;;;;5064474;28;20489;-80
2022/08/19 11:14:08;;;;;;;1.40;1.30;;;;;;;;;;5068578;28;20446;-81
2022/08/19 11:16:35;;;;;;;1.50;1.10;;;;;;;;;;5069883;28;20437;-80
2022/08/19 11:19:01;;;;;;;1.42;1.30;;;;;;;;;;5070268;28;20427;-80
2022/08/19 11:21:30;;;;;;;1.67;1.20;;;;;;;;;;5073201;28;20416;-82
2022/08/19 11:23:58;;;;;;;1.13;1.03;;;;;;;;;;5072798;28;20919;-79
2022/08/19 11:26:26;;;;;;;2.75;1.02;;;;;;;;;;5068447;28;20424;-82
2022/08/19 11:28:54;;;;;;;2.22;1.20;;;;;;;;;;5070956;28;20917;-82
2022/08/19 11:31:22;;;;;;;1.58;1.10;;;;;;;;;;5072015;28;20419;-82
2022/08/19 11:33:50;;;;;;;1.63;1.17;;;;;;;;;;5073491;28;20928;-81
2022/08/19 11:36:17;;;;;;;4.40;1.27;;;;;;;;;;5067992;28;20426;-81
2022/08/19 11:38:43;;;;;;;2.10;1.33;;;;;;;;;;5072783;28;20415;-80
2022/08/19 11:41:12;;;;;;;1.58;1.10;;;;;;;;;;5068037;28;20415;-81
2022/08/19 11:43:39;;;;;;;1.35;1.00;;;;;;;;;;5069413;28;20415;-81
2022/08/19 11:46:08;;;;;;;1.80;1.30;;;;;;;;;;5068995;28;21087;-81
2022/08/19 11:48:36;;;;;;;2.10;1.40;;;;;;;;;;5072207;28;20530;-81
2022/08/19 11:51:05;;;;;;;1.33;1.23;;;;;;;;;;5067988;28;20431;-82
2022/08/19 11:53:32;;;;;;;2.10;1.40;;;;;;;;;;5070121;28;20937;-80
2022/08/19 11:55:58;;;;;;;1.27;1.17;;;;;;;;;;5097622;28;20449;-80
2022/08/19 11:58:26;;;;;;;1.40;1.30;;;;;;;;;;5068368;28;20463;-80
2022/08/19 12:00:52;;;;;;;2.13;1.30;;;;;;;;;;5066819;28;20859;-82
2022/08/19 12:03:20;;;;;;;2.72;1.50;;;;;;;;;;5064108;28;20943;-81
2022/08/19 12:05:47;;;;;;;1.52;1.20;;;;;;;;;;5069822;28;20427;-81
2022/08/19 12:08:15;;;;;;;2.13;1.20;;;;;;;;;;5067053;28;20439;-82
2022/08/19 12:10:41;;;;;;;2.72;1.02;;;;;;;;;;5095388;28;20510;-81
2022/08/19 12:13:08;;;;;;;1.20;1.10;;;;;;;;;;5068231;28;20431;-81
2022/08/19 12:15:36;;;;;;;7.30;1.40;;;;;;;;;;5068906;28;20432;-82
2022/08/19 12:18:03;;;;;;;1.33;1.10;;;;;;;;;;5067170;28;20435;-82
2022/08/19 12:20:30;;;;;;;1.60;1.27;;;;;;;;;;5068177;28;20431;-82
2022/08/19 12:22:57;;;;;;;1.70;1.20;;;;;;;;;;5070230;28;20427;-81
2022/08/19 12:25:23;;;;;;;2.20;1.40;;;;;;;;;;5067671;28;20945;-82
2022/08/19 12:27:49;;;;;;;1.30;1.20;;;;;;;;;;5068187;28;20498;-80
2022/08/19 12:30:16;;;;;;;1.63;1.35;;;;;;;;;;5068829;28;20431;-80
2022/08/19 12:32:42;;;;;;;1.40;1.30;;;;;;;;;;5069197;28;20427;-80
2022/08/19 12:35:11;;;;;;;1.33;1.23;;;;;;;;;;5072825;28;20431;-82
2022/08/19 12:37:41;;;;;;;1.58;1.10;;;;;;;;;;5067445;28;20427;-82
2022/08/19 12:40:08;;;;;;;1.20;1.10;;;;;;;;;;5071109;28;20434;-82
2022/08/19 12:42:34;;;;;;;1.73;1.50;;;;;;;;;;5070708;28;20423;-82
2022/08/19 12:45:01;;;;;;;1.30;1.20;;;;;;;;;;5066499;28;20424;-80
2022/08/19 12:47:27;;;;;;;1.30;1.20;;;;;;;;;;5061935;28;20423;-82
2022/08/19 12:49:54;;;;;;;1.40;1.30;;;;;;;;;;5066962;28;20939;-82
2022/08/19 12:52:20;;;;;;;1.58;1.48;;;;;;;;;;5066338;28;20473;-81
2022/08/19 12:54:49;;;;;;;1.50;1.40;;;;;;;;;;5065237;28;20432;-82
2022/08/19 12:57:15;;;;;;;3.63;1.80;;;;;;;;;;5065015;28;20463;-82
2022/08/19 12:59:42;;;;;;;2.30;1.50;;;;;;;;;;5067192;28;20454;-82
2022/08/19 13:02:09;;;;;;;1.40;1.30;;;;;;;;;;5063013;28;20424;-81
2022/08/19 13:04:40;;;;;;;1.63;1.20;;;;;;;;;;5067877;28;20518;-82
2022/08/19 13:07:06;;;;;;;1.50;1.40;;;;;;;;;;5049031;28;20431;-82
2022/08/19 13:09:33;;;;;;;1.85;1.50;;;;;;;;;;5057226;28;20430;-81
2022/08/19 13:12:02;;;;;;;2.00;1.40;;;;;;;;;;5065343;28;20433;-81
2022/08/19 13:14:30;;;;;;;1.53;1.43;;;;;;;;;;5064171;28;20978;-81
2022/08/19 13:16:57;;;;;;;2.10;1.27;;;;;;;;;;5069633;28;20515;-83
2022/08/19 13:19:24;;;;;;;1.70;1.60;;;;;;;;;;5072816;28;20854;-81
2022/08/19 13:21:51;;;;;;;1.60;1.50;;;;;;;;;;5074392;28;20422;-82
2022/08/19 13:24:17;;;;;;;1.67;1.30;;;;;;;;;;5066029;28;20454;-82
2022/08/19 13:26:44;;;;;;;2.80;1.53;;;;;;;;;;5067559;28;21304;-82
2022/08/19 13:34:40;;;;;;;2.10;1.60;;;;;;;;;;5070390;28;20427;-80
2022/08/19 13:37:07;;;;;;;2.80;1.87;;;;;;;;;;5066282;28;20469;-80
2022/08/19 13:39:34;;;;;;;3.40;1.80;;;;;;;;;;5065077;28;20418;-80
2022/08/19 13:42:01;;;;;;;1.67;1.57;;;;;;;;;;5062801;28;20429;-80
2022/08/19 13:44:29;;;;;;;1.85;1.50;;;;;;;;;;5070595;28;20419;-80
2022/08/19 13:47:00;;;;;;;3.70;2.00;;;;;;;;;;5068438;28;20941;-81
2022/08/19 13:49:30;;;;;;;2.92;1.80;;;;;;;;;;5070440;28;20458;-81
2022/08/19 13:51:57;;;;;;;1.67;1.50;;;;;;;;;;5067591;28;20435;-81
2022/08/19 13:54:23;;;;;;;2.90;1.80;;;;;;;;;;5098554;28;20422;-82
2022/08/19 13:56:49;;;;;;;1.70;1.60;;;;;;;;;;5067049;28;20454;-80
2022/08/19 13:59:17;;;;;;;1.70;1.60;;;;;;;;;;5070109;28;20420;-80
2022/08/19 14:01:45;;;;;;;1.58;1.48;;;;;;;;;;5067526;28;20996;-80
2022/08/19 14:04:11;;;;;;;2.75;1.77;;;;;;;;;;5069059;28;20455;-80
2022/08/19 14:06:38;;;;;;;1.80;1.70;;;;;;;;;;5069975;28;20431;-82
2022/08/19 14:09:05;;;;;;;1.80;1.70;;;;;;;;;;5071795;28;20423;-82
2022/08/19 14:11:31;;;;;;;2.63;1.70;;;;;;;;;;5072916;28;20949;-80
2022/08/19 14:13:58;;;;;;;2.53;1.80;;;;;;;;;;5072791;28;20786;-81
2022/08/19 14:16:24;;;;;;;1.80;1.70;;;;;;;;;;5073126;28;20470;-81
2022/08/19 14:18:52;;;;;;;2.53;2.00;;;;;;;;;;5072729;28;20403;-83
2022/08/19 14:21:20;;;;;;;1.85;1.70;;;;;;;;;;5069899;28;20427;-80
2022/08/19 14:23:47;;;;;;;1.70;1.60;;;;;;;;;;5105496;28;20412;-81
2022/08/19 14:26:14;;;;;;;2.33;1.90;;;;;;;;;;5075440;28;20427;-82
2022/08/19 14:28:42;;;;;;;2.13;1.93;;;;;;;;;;5074024;28;20430;-82
2022/08/19 14:31:09;;;;;;;2.30;2.10;;;;;;;;;;5075080;28;20435;-81
2022/08/19 14:33:37;;;;;;;1.70;1.60;;;;;;;;;;5100795;28;20431;-81
2022/08/19 14:36:06;;;;;;;2.80;1.83;;;;;;;;;;5070016;28;20821;-80
2022/08/19 14:38:34;;;;;;;2.00;1.80;;;;;;;;;;5075755;28;20438;-81
2022/08/19 14:41:12;;;;;;;2.03;1.85;;;;;;;;;;5073446;28;20438;-81
2022/08/19 14:43:39;;;;;;;2.70;2.00;;;;;;;;;;5074122;28;20462;-80
2022/08/19 14:46:07;;;;;;;2.30;2.10;;;;;;;;;;5071475;28;20423;-80
2022/08/19 14:48:36;;;;;;;2.35;1.90;;;;;;;;;;5071557;28;20494;-81
2022/08/19 14:51:04;;;;;;;2.90;2.00;;;;;;;;;;5072393;28;21425;-81
2022/08/19 14:53:33;;;;;;;2.60;1.90;;;;;;;;;;5073550;28;20431;-81
2022/08/19 14:56:00;;;;;;;2.40;2.20;;;;;;;;;;5073170;28;20488;-82